sensor_id;sensor_type;location;lat;lon;timestamp;pressure;altitude;pressure_sealevel;temperature;humidity
58686;BME280;44465;53.206;-6.106;2023-09-19T00:02:04;100093.78;;;22.90;57.01
58686;BME280;44465;53.206;-6.106;2023-09-19T00:04:32;100087.53;;;22.89;57.03
58686;BME280;44465;53.206;-6.106;2023-09-19T00:06:58;100093.88;;;22.88;57.08
58686;BME280;44465;53.206;-6.106;2023-09-19T00:09:24;100095.72;;;22.88;56.80
58686;BME280;44465;53.206;-6.106;2023-09-19T00:11:52;100101.22;;;22.86;57.21
58686;BME280;44465;53.206;-6.106;2023-09-19T00:14:18;100099.50;;;22.85;56.87
58686;BME280;44465;53.206;-6.106;2023-09-19T00:16:43;100089.59;;;22.86;56.80
58686;BME280;44465;53.206;-6.106;2023-09-19T00:19:09;100095.09;;;22.84;56.87
58686;BME280;44465;53.206;-6.106;2023-09-19T00:21:34;100097.78;;;22.84;56.91
58686;BME280;44465;53.206;-6.106;2023-09-19T00:24:03;100103.16;;;22.84;56.88
58686;BME280;44465;53.206;-6.106;2023-09-19T00:26:29;100096.06;;;22.83;56.84
58686;BME280;44465;53.206;-6.106;2023-09-19T00:28:56;100102.28;;;22.84;56.79
58686;BME280;44465;53.206;-6.106;2023-09-19T00:31:22;100105.09;;;22.82;56.77
58686;BME280;44465;53.206;-6.106;2023-09-19T00:33:48;100100.56;;;22.83;56.89
58686;BME280;44465;53.206;-6.106;2023-09-19T00:36:14;100098.00;;;22.81;56.84
58686;BME280;44465;53.206;-6.106;2023-09-19T00:38:39;100085.53;;;22.80;56.96
58686;BME280;44465;53.206;-6.106;2023-09-19T00:41:04;100085.53;;;22.80;56.79
58686;BME280;44465;53.206;-6.106;2023-09-19T00:43:30;100079.31;;;22.80;56.74
58686;BME280;44465;53.206;-6.106;2023-09-19T00:45:59;100083.81;;;22.79;56.55
58686;BME280;44465;53.206;-6.106;2023-09-19T00:48:28;100076.75;;;22.78;56.62
58686;BME280;44465;53.206;-6.106;2023-09-19T00:50:54;100073.34;;;22.76;56.75
58686;BME280;44465;53.206;-6.106;2023-09-19T00:53:20;100066.25;;;22.75;56.65
58686;BME280;44465;53.206;-6.106;2023-09-19T00:55:48;100068.06;;;22.74;56.75
58686;BME280;44465;53.206;-6.106;2023-09-19T00:58:14;100060.97;;;22.73;56.52
58686;BME280;44465;53.206;-6.106;2023-09-19T01:00:41;100059.16;;;22.74;56.44
58686;BME280;44465;53.206;-6.106;2023-09-19T01:03:10;100055.72;;;22.72;56.86
58686;BME280;44465;53.206;-6.106;2023-09-19T01:05:35;100047.69;;;22.72;56.83
58686;BME280;44465;53.206;-6.106;2023-09-19T01:08:01;100048.53;;;22.72;56.67
58686;BME280;44465;53.206;-6.106;2023-09-19T01:10:26;100030.59;;;22.73;56.61
58686;BME280;44465;53.206;-6.106;2023-09-19T01:13:03;100031.56;;;22.72;56.70
58686;BME280;44465;53.206;-6.106;2023-09-19T01:23:00;100008.41;;;22.71;56.66
58686;BME280;44465;53.206;-6.106;2023-09-19T01:28:26;99992.41;;;22.69;56.62
58686;BME280;44465;53.206;-6.106;2023-09-19T01:30:58;99988.03;;;22.68;56.59
58686;BME280;44465;53.206;-6.106;2023-09-19T01:33:26;99979.09;;;22.68;56.63
58686;BME280;44465;53.206;-6.106;2023-09-19T01:35:52;99966.69;;;22.67;56.50
58686;BME280;44465;53.206;-6.106;2023-09-19T01:38:18;99962.28;;;22.66;56.84
58686;BME280;44465;53.206;-6.106;2023-09-19T01:40:48;99964.09;;;22.65;56.68
58686;BME280;44465;53.206;-6.106;2023-09-19T01:43:22;99957.88;;;22.65;56.76
58686;BME280;44465;53.206;-6.106;2023-09-19T01:51:02;99923.97;;;22.64;56.77
58686;BME280;44465;53.206;-6.106;2023-09-19T01:56:00;99916.88;;;22.62;56.63
58686;BME280;44465;53.206;-6.106;2023-09-19T01:58:29;99895.41;;;22.62;56.58
58686;BME280;44465;53.206;-6.106;2023-09-19T02:00:58;99890.03;;;22.62;56.68
58686;BME280;44465;53.206;-6.106;2023-09-19T02:03:25;99890.03;;;22.62;56.59
58686;BME280;44465;53.206;-6.106;2023-09-19T02:05:52;99878.44;;;22.62;56.77
58686;BME280;44465;53.206;-6.106;2023-09-19T02:08:19;99866.88;;;22.61;56.72
58686;BME280;44465;53.206;-6.106;2023-09-19T02:10:45;99859.78;;;22.60;56.74
58686;BME280;44465;53.206;-6.106;2023-09-19T02:13:20;99854.56;;;22.59;56.73
58686;BME280;44465;53.206;-6.106;2023-09-19T02:15:46;99851.88;;;22.59;56.85
58686;BME280;44465;53.206;-6.106;2023-09-19T02:18:12;99840.25;;;22.58;56.63
58686;BME280;44465;53.206;-6.106;2023-09-19T02:20:37;99834.91;;;22.58;56.54
58686;BME280;44465;53.206;-6.106;2023-09-19T02:23:03;99841.22;;;22.57;56.64
58686;BME280;44465;53.206;-6.106;2023-09-19T02:25:28;99833.19;;;22.57;56.75
58686;BME280;44465;53.206;-6.106;2023-09-19T02:27:54;99831.50;;;22.56;56.54
58686;BME280;44465;53.206;-6.106;2023-09-19T02:30:23;99825.25;;;22.56;56.62
58686;BME280;44465;53.206;-6.106;2023-09-19T02:32:50;99811.84;;;22.56;56.65
58686;BME280;44465;53.206;-6.106;2023-09-19T02:35:16;99816.38;;;22.55;56.57
58686;BME280;44465;53.206;-6.106;2023-09-19T02:37:44;99809.16;;;22.56;56.55
58686;BME280;44465;53.206;-6.106;2023-09-19T02:40:10;99791.34;;;22.55;56.64
58686;BME280;44465;53.206;-6.106;2023-09-19T02:42:47;99777.09;;;22.54;56.51
58686;BME280;44465;53.206;-6.106;2023-09-19T02:45:18;99774.41;;;22.54;56.62
58686;BME280;44465;53.206;-6.106;2023-09-19T02:47:43;99743.16;;;22.42;56.61
58686;BME280;44465;53.206;-6.106;2023-09-19T02:50:09;99752.94;;;22.54;56.54
58686;BME280;44465;53.206;-6.106;2023-09-19T02:52:38;99730.75;;;22.52;56.73
58686;BME280;44465;53.206;-6.106;2023-09-19T02:55:06;99714.66;;;22.52;56.73
58686;BME280;44465;53.206;-6.106;2023-09-19T02:57:34;99710.25;;;22.51;56.71
58686;BME280;44465;53.206;-6.106;2023-09-19T02:59:59;99705.72;;;22.52;56.52
58686;BME280;44465;53.206;-6.106;2023-09-19T03:02:28;99695.13;;;22.50;56.72
58686;BME280;44465;53.206;-6.106;2023-09-19T03:04:53;99672.84;;;22.50;56.63
58686;BME280;44465;53.206;-6.106;2023-09-19T03:07:19;99669.28;;;22.49;56.74
58686;BME280;44465;53.206;-6.106;2023-09-19T03:09:44;99650.50;;;22.49;56.40
58686;BME280;44465;53.206;-6.106;2023-09-19T03:12:10;99630.00;;;22.48;56.71
58686;BME280;44465;53.206;-6.106;2023-09-19T03:14:35;99629.16;;;22.48;56.71
58686;BME280;44465;53.206;-6.106;2023-09-19T03:17:02;99621.97;;;22.48;56.39
58686;BME280;44465;53.206;-6.106;2023-09-19T03:19:30;99624.66;;;22.48;56.43
58686;BME280;44465;53.206;-6.106;2023-09-19T03:21:58;99614.88;;;22.47;56.67
58686;BME280;44465;53.206;-6.106;2023-09-19T03:24:24;99596.25;;;22.45;56.61
58686;BME280;44465;53.206;-6.106;2023-09-19T03:26:49;99597.09;;;22.46;56.68
58686;BME280;44465;53.206;-6.106;2023-09-19T03:29:15;99577.47;;;22.45;56.74
58686;BME280;44465;53.206;-6.106;2023-09-19T03:31:43;99562.22;;;22.46;56.58
58686;BME280;44465;53.206;-6.106;2023-09-19T03:34:09;99544.44;;;22.45;56.84
58686;BME280;44465;53.206;-6.106;2023-09-19T03:36:34;99537.38;;;22.44;56.78
58686;BME280;44465;53.206;-6.106;2023-09-19T03:39:00;99534.78;;;22.42;56.58
58686;BME280;44465;53.206;-6.106;2023-09-19T03:41:26;99514.19;;;22.43;56.43
58686;BME280;44465;53.206;-6.106;2023-09-19T03:43:52;99511.63;;;22.41;56.42
58686;BME280;44465;53.206;-6.106;2023-09-19T03:46:18;99489.06;;;22.33;56.72
58686;BME280;44465;53.206;-6.106;2023-09-19T03:48:43;99496.41;;;22.42;56.40
58686;BME280;44465;53.206;-6.106;2023-09-19T03:51:09;99478.59;;;22.41;56.68
58686;BME280;44465;53.206;-6.106;2023-09-19T03:53:35;99483.97;;;22.41;56.49
58686;BME280;44465;53.206;-6.106;2023-09-19T03:56:00;99467.88;;;22.41;56.60
58686;BME280;44465;53.206;-6.106;2023-09-19T03:58:28;99457.25;;;22.39;56.43
58686;BME280;44465;53.206;-6.106;2023-09-19T04:00:57;99446.50;;;22.39;56.63
58686;BME280;44465;53.206;-6.106;2023-09-19T04:03:23;99441.16;;;22.39;56.61
58686;BME280;44465;53.206;-6.106;2023-09-19T04:05:50;99434.91;;;22.39;56.55
58686;BME280;44465;53.206;-6.106;2023-09-19T04:08:15;99424.19;;;22.39;56.60
58686;BME280;44465;53.206;-6.106;2023-09-19T04:10:43;99416.13;;;22.39;56.66
58686;BME280;44465;53.206;-6.106;2023-09-19T04:13:09;99391.28;;;22.37;56.75
58686;BME280;44465;53.206;-6.106;2023-09-19T04:15:36;99393.84;;;22.38;56.53
58686;BME280;44465;53.206;-6.106;2023-09-19T04:18:02;99360.78;;;22.38;56.61
58686;BME280;44465;53.206;-6.106;2023-09-19T04:20:28;99365.31;;;22.37;56.64
58686;BME280;44465;53.206;-6.106;2023-09-19T04:22:54;99368.97;;;22.36;56.50
58686;BME280;44465;53.206;-6.106;2023-09-19T04:25:19;99346.66;;;22.36;56.58
58686;BME280;44465;53.206;-6.106;2023-09-19T04:27:45;99351.19;;;22.35;56.50
58686;BME280;44465;53.206;-6.106;2023-09-19T04:30:11;99340.47;;;22.35;56.47
58686;BME280;44465;53.206;-6.106;2023-09-19T04:32:38;99323.53;;;22.35;56.29
58686;BME280;44465;53.206;-6.106;2023-09-19T04:35:08;99329.00;;;22.33;56.50
58686;BME280;44465;53.206;-6.106;2023-09-19T04:37:40;99328.03;;;22.34;56.32
58686;BME280;44465;53.206;-6.106;2023-09-19T04:40:10;99320.97;;;22.33;56.27
58686;BME280;44465;53.206;-6.106;2023-09-19T04:42:43;99311.09;;;22.34;56.30
58686;BME280;44465;53.206;-6.106;2023-09-19T04:45:08;99316.47;;;22.34;56.53
58686;BME280;44465;53.206;-6.106;2023-09-19T04:47:35;99305.84;;;22.32;56.49
58686;BME280;44465;53.206;-6.106;2023-09-19T04:50:00;99301.34;;;22.33;56.44
58686;BME280;44465;53.206;-6.106;2023-09-19T04:52:25;99257.78;;;22.19;56.62
58686;BME280;44465;53.206;-6.106;2023-09-19T04:54:51;99280.88;;;22.31;56.42
58686;BME280;44465;53.206;-6.106;2023-09-19T04:57:16;99279.16;;;22.30;56.42
58686;BME280;44465;53.206;-6.106;2023-09-19T04:59:41;99286.38;;;22.30;56.33
58686;BME280;44465;53.206;-6.106;2023-09-19T05:02:07;99276.47;;;22.30;56.33
58686;BME280;44465;53.206;-6.106;2023-09-19T05:04:35;99291.75;;;22.30;56.17
58686;BME280;44465;53.206;-6.106;2023-09-19T05:07:00;99280.16;;;22.29;56.37
58686;BME280;44465;53.206;-6.106;2023-09-19T05:09:28;99272.97;;;22.30;56.36
58686;BME280;44465;53.206;-6.106;2023-09-19T05:11:53;99259.66;;;22.28;56.41
58686;BME280;44465;53.206;-6.106;2023-09-19T05:14:19;99239.09;;;22.29;56.27
58686;BME280;44465;53.206;-6.106;2023-09-19T05:16:46;99238.22;;;22.28;56.37
58686;BME280;44465;53.206;-6.106;2023-09-19T05:19:11;99265.91;;;22.29;56.41
58686;BME280;44465;53.206;-6.106;2023-09-19T05:21:37;99257.84;;;22.29;56.44
58686;BME280;44465;53.206;-6.106;2023-09-19T05:24:04;99240.91;;;22.28;56.41
58686;BME280;44465;53.206;-6.106;2023-09-19T05:26:31;99232.84;;;22.28;56.29
58686;BME280;44465;53.206;-6.106;2023-09-19T05:28:57;99226.66;;;22.28;56.56
58686;BME280;44465;53.206;-6.106;2023-09-19T05:31:22;99229.34;;;22.28;56.49
58686;BME280;44465;53.206;-6.106;2023-09-19T05:33:48;99223.09;;;22.27;56.18
58686;BME280;44465;53.206;-6.106;2023-09-19T05:36:14;99231.16;;;22.27;56.25
58686;BME280;44465;53.206;-6.106;2023-09-19T05:38:42;99229.44;;;22.26;56.24
58686;BME280;44465;53.206;-6.106;2023-09-19T05:41:07;99233.97;;;22.26;56.11
58686;BME280;44465;53.206;-6.106;2023-09-19T05:43:34;99243.84;;;22.25;56.26
58686;BME280;44465;53.206;-6.106;2023-09-19T05:46:02;99235.09;;;22.23;56.29
58686;BME280;44465;53.206;-6.106;2023-09-19T05:48:28;99226.06;;;22.24;56.50
58686;BME280;44465;53.206;-6.106;2023-09-19T05:50:53;99224.38;;;22.23;56.08
58686;BME280;44465;53.206;-6.106;2023-09-19T05:53:19;99211.78;;;22.24;56.14
58686;BME280;44465;53.206;-6.106;2023-09-19T05:55:44;99213.66;;;22.23;56.21
58686;BME280;44465;53.206;-6.106;2023-09-19T05:58:10;99206.56;;;22.22;56.19
58686;BME280;44465;53.206;-6.106;2023-09-19T06:00:39;99194.00;;;22.23;56.27
58686;BME280;44465;53.206;-6.106;2023-09-19T06:03:06;99180.59;;;22.23;56.21
58686;BME280;44465;53.206;-6.106;2023-09-19T06:05:32;99163.69;;;22.22;56.09
58686;BME280;44465;53.206;-6.106;2023-09-19T06:07:57;99174.41;;;22.22;56.47
58686;BME280;44465;53.206;-6.106;2023-09-19T06:10:25;99185.13;;;22.22;56.28
58686;BME280;44465;53.206;-6.106;2023-09-19T06:12:50;99171.72;;;22.22;56.40
58686;BME280;44465;53.206;-6.106;2023-09-19T06:15:16;99182.44;;;22.22;56.31
58686;BME280;44465;53.206;-6.106;2023-09-19T06:17:50;99186.81;;;22.23;56.42
58686;BME280;44465;53.206;-6.106;2023-09-19T06:20:16;99181.47;;;22.23;56.29
58686;BME280;44465;53.206;-6.106;2023-09-19T06:22:42;99181.47;;;22.23;56.29
58686;BME280;44465;53.206;-6.106;2023-09-19T06:25:08;99186.81;;;22.23;56.55
58686;BME280;44465;53.206;-6.106;2023-09-19T06:27:36;99170.75;;;22.23;56.39
58686;BME280;44465;53.206;-6.106;2023-09-19T06:30:01;99160.00;;;22.23;56.35
58686;BME280;44465;53.206;-6.106;2023-09-19T06:32:28;99176.09;;;22.23;56.40
58686;BME280;44465;53.206;-6.106;2023-09-19T06:34:53;99162.69;;;22.23;56.14
58686;BME280;44465;53.206;-6.106;2023-09-19T06:37:20;99171.56;;;22.24;56.28
58686;BME280;44465;53.206;-6.106;2023-09-19T06:39:46;99184.97;;;22.24;56.21
58686;BME280;44465;53.206;-6.106;2023-09-19T06:42:14;99166.34;;;22.22;56.33
58686;BME280;44465;53.206;-6.106;2023-09-19T06:44:42;99188.94;;;22.20;56.17
58686;BME280;44465;53.206;-6.106;2023-09-19T06:47:07;99165.63;;;22.20;56.31
58686;BME280;44465;53.206;-6.106;2023-09-19T06:49:33;99171.97;;;22.19;56.34
58686;BME280;44465;53.206;-6.106;2023-09-19T06:51:58;99168.47;;;22.19;56.32
58686;BME280;44465;53.206;-6.106;2023-09-19T06:54:24;99173.81;;;22.19;56.38
58686;BME280;44465;53.206;-6.106;2023-09-19T06:56:49;99184.53;;;22.19;56.34
58686;BME280;44465;53.206;-6.106;2023-09-19T06:59:14;99174.66;;;22.19;56.54
58686;BME280;44465;53.206;-6.106;2023-09-19T07:01:40;99170.28;;;22.18;56.49
58686;BME280;44465;53.206;-6.106;2023-09-19T07:04:06;99193.56;;;22.18;56.50
58686;BME280;44465;53.206;-6.106;2023-09-19T07:06:31;99195.13;;;22.20;56.44
58686;BME280;44465;53.206;-6.106;2023-09-19T07:08:57;99186.25;;;22.20;56.44
58686;BME280;44465;53.206;-6.106;2023-09-19T07:11:22;99194.28;;;22.20;56.30
58686;BME280;44465;53.206;-6.106;2023-09-19T07:13:48;99204.16;;;22.19;56.27
58686;BME280;44465;53.206;-6.106;2023-09-19T07:16:14;99207.69;;;22.20;56.17
58686;BME280;44465;53.206;-6.106;2023-09-19T07:18:52;99195.13;;;22.20;56.33
58686;BME280;44465;53.206;-6.106;2023-09-19T07:21:17;99203.16;;;22.20;56.26
58686;BME280;44465;53.206;-6.106;2023-09-19T07:23:43;99218.41;;;22.20;56.16
58686;BME280;44465;53.206;-6.106;2023-09-19T07:26:08;99216.56;;;22.20;56.41
58686;BME280;44465;53.206;-6.106;2023-09-19T07:28:33;99230.97;;;22.19;56.42
58686;BME280;44465;53.206;-6.106;2023-09-19T07:31:03;99232.81;;;22.19;56.14
58686;BME280;44465;53.206;-6.106;2023-09-19T07:33:30;99238.16;;;22.19;56.18
58686;BME280;44465;53.206;-6.106;2023-09-19T07:35:55;99229.25;;;22.18;56.10
58686;BME280;44465;53.206;-6.106;2023-09-19T07:38:20;99238.28;;;22.17;56.28
58686;BME280;44465;53.206;-6.106;2023-09-19T07:40:46;99264.09;;;22.18;56.29
58686;BME280;44465;53.206;-6.106;2023-09-19T07:43:12;99270.44;;;22.17;56.16
58686;BME280;44465;53.206;-6.106;2023-09-19T07:45:37;99256.06;;;22.18;56.36
58686;BME280;44465;53.206;-6.106;2023-09-19T07:48:02;99251.69;;;22.17;56.31
58686;BME280;44465;53.206;-6.106;2023-09-19T07:50:29;99289.22;;;22.17;56.57
58686;BME280;44465;53.206;-6.106;2023-09-19T07:52:55;99291.78;;;22.19;56.50
58686;BME280;44465;53.206;-6.106;2023-09-19T07:55:21;99289.94;;;22.19;56.33
58686;BME280;44465;53.206;-6.106;2023-09-19T07:57:53;99302.50;;;22.19;56.43
58686;BME280;44465;53.206;-6.106;2023-09-19T08:00:19;99273.06;;;22.07;56.37
58686;BME280;44465;53.206;-6.106;2023-09-19T08:02:44;99289.94;;;22.19;56.43
58686;BME280;44465;53.206;-6.106;2023-09-19T08:05:11;99303.34;;;22.19;56.54
58686;BME280;44465;53.206;-6.106;2023-09-19T08:07:37;99303.34;;;22.19;56.40
58686;BME280;44465;53.206;-6.106;2023-09-19T08:10:03;99303.34;;;22.19;56.35
58686;BME280;44465;53.206;-6.106;2023-09-19T08:12:28;99309.69;;;22.18;56.34
58686;BME280;44465;53.206;-6.106;2023-09-19T08:14:55;99307.00;;;22.18;56.21
58686;BME280;44465;53.206;-6.106;2023-09-19T08:17:20;99301.66;;;22.18;56.48
58686;BME280;44465;53.206;-6.106;2023-09-19T08:19:48;99301.66;;;22.18;56.41
58686;BME280;44465;53.206;-6.106;2023-09-19T08:22:14;99305.19;;;22.19;56.47
58686;BME280;44465;53.206;-6.106;2023-09-19T08:24:42;99306.16;;;22.18;56.62
58686;BME280;44465;53.206;-6.106;2023-09-19T08:27:08;99328.47;;;22.18;56.50
58686;BME280;44465;53.206;-6.106;2023-09-19T08:29:35;99324.81;;;22.19;56.41
58686;BME280;44465;53.206;-6.106;2023-09-19T08:32:00;99322.13;;;22.19;56.49
58686;BME280;44465;53.206;-6.106;2023-09-19T08:34:26;99324.81;;;22.19;56.51
58686;BME280;44465;53.206;-6.106;2023-09-19T08:36:51;99302.50;;;22.19;56.63
58686;BME280;44465;53.206;-6.106;2023-09-19T08:39:18;99325.66;;;22.20;56.62
58686;BME280;44465;53.206;-6.106;2023-09-19T08:41:44;99325.66;;;22.20;56.40
58686;BME280;44465;53.206;-6.106;2023-09-19T08:44:09;99316.63;;;22.21;56.56
58686;BME280;44465;53.206;-6.106;2023-09-19T08:46:35;99331.88;;;22.20;56.47
58686;BME280;44465;53.206;-6.106;2023-09-19T08:49:04;99342.59;;;22.20;56.54
58686;BME280;44465;53.206;-6.106;2023-09-19T08:51:33;99339.06;;;22.20;56.35
58686;BME280;44465;53.206;-6.106;2023-09-19T08:54:08;99338.22;;;22.19;56.30
58686;BME280;44465;53.206;-6.106;2023-09-19T08:56:36;99333.81;;;22.18;56.43
58686;BME280;44465;53.206;-6.106;2023-09-19T08:59:04;99347.22;;;22.18;56.30
58686;BME280;44465;53.206;-6.106;2023-09-19T09:01:32;99338.22;;;22.19;56.27
58686;BME280;44465;53.206;-6.106;2023-09-19T09:03:58;99339.91;;;22.20;56.58
58686;BME280;44465;53.206;-6.106;2023-09-19T09:06:24;99349.78;;;22.20;56.30
58686;BME280;44465;53.206;-6.106;2023-09-19T09:08:50;99344.53;;;22.18;56.38
58686;BME280;44465;53.206;-6.106;2023-09-19T09:11:17;99361.34;;;22.20;56.41
58686;BME280;44465;53.206;-6.106;2023-09-19T09:13:45;99356.97;;;22.19;56.63
58686;BME280;44465;53.206;-6.106;2023-09-19T09:16:11;99359.66;;;22.19;56.49
58686;BME280;44465;53.206;-6.106;2023-09-19T09:18:37;99380.13;;;22.20;56.43
58686;BME280;44465;53.206;-6.106;2023-09-19T09:21:03;99368.56;;;22.20;56.70
58686;BME280;44465;53.206;-6.106;2023-09-19T09:23:31;99371.25;;;22.20;56.51
58686;BME280;44465;53.206;-6.106;2023-09-19T09:25:57;99369.41;;;22.20;56.60
58686;BME280;44465;53.206;-6.106;2023-09-19T09:28:24;99376.47;;;22.21;56.54
58686;BME280;44465;53.206;-6.106;2023-09-19T09:30:50;99371.13;;;22.21;56.42
58686;BME280;44465;53.206;-6.106;2023-09-19T09:33:16;99371.13;;;22.21;56.45
58686;BME280;44465;53.206;-6.106;2023-09-19T09:38:17;99359.66;;;22.19;56.74
58686;BME280;44465;53.206;-6.106;2023-09-19T09:40:47;99359.66;;;22.19;56.44
58686;BME280;44465;53.206;-6.106;2023-09-19T09:51:48;99372.09;;;22.20;56.66
58686;BME280;44465;53.206;-6.106;2023-09-19T09:54:23;99358.69;;;22.20;56.73
58686;BME280;44465;53.206;-6.106;2023-09-19T09:56:55;99372.09;;;22.20;56.58
58686;BME280;44465;53.206;-6.106;2023-09-19T10:02:08;99371.13;;;22.21;56.88
58686;BME280;44465;53.206;-6.106;2023-09-19T10:04:38;99372.81;;;22.22;56.54
58686;BME280;44465;53.206;-6.106;2023-09-19T10:07:29;99378.19;;;22.22;56.71
58686;BME280;44465;53.206;-6.106;2023-09-19T10:10:01;99365.75;;;22.21;56.79
58686;BME280;44465;53.206;-6.106;2023-09-19T10:12:47;99371.13;;;22.21;56.82
58686;BME280;44465;53.206;-6.106;2023-09-19T10:15:14;99365.75;;;22.21;56.63
58686;BME280;44465;53.206;-6.106;2023-09-19T10:17:45;99381.84;;;22.21;56.86
58686;BME280;44465;53.206;-6.106;2023-09-19T10:20:17;99373.78;;;22.21;56.73
58686;BME280;44465;53.206;-6.106;2023-09-19T10:23:06;99377.31;;;22.22;56.73
58686;BME280;44465;53.206;-6.106;2023-09-19T10:25:42;99381.84;;;22.21;56.47
58686;BME280;44465;53.206;-6.106;2023-09-19T10:28:08;99371.94;;;22.22;56.66
58686;BME280;44465;53.206;-6.106;2023-09-19T10:30:40;99382.66;;;22.22;56.59
58686;BME280;44465;53.206;-6.106;2023-09-19T10:33:09;99378.19;;;22.22;56.73
58686;BME280;44465;53.206;-6.106;2023-09-19T10:35:35;99365.75;;;22.21;56.77
58686;BME280;44465;53.206;-6.106;2023-09-19T10:38:03;99380.72;;;22.24;56.75
58686;BME280;44465;53.206;-6.106;2023-09-19T10:40:29;99389.63;;;22.24;56.85
58686;BME280;44465;53.206;-6.106;2023-09-19T10:43:01;99390.47;;;22.25;56.79
58686;BME280;44465;53.206;-6.106;2023-09-19T10:45:28;99377.91;;;22.25;56.87
58686;BME280;44465;53.206;-6.106;2023-09-19T10:47:57;99385.94;;;22.25;56.61
58686;BME280;44465;53.206;-6.106;2023-09-19T10:50:22;99379.59;;;22.26;56.67
58686;BME280;44465;53.206;-6.106;2023-09-19T10:52:48;99378.63;;;22.27;56.77
58686;BME280;44465;53.206;-6.106;2023-09-19T10:55:24;99380.47;;;22.27;56.89
58686;BME280;44465;53.206;-6.106;2023-09-19T10:57:50;99384.13;;;22.26;57.03
58686;BME280;44465;53.206;-6.106;2023-09-19T11:00:15;99368.88;;;22.26;56.80
58686;BME280;44465;53.206;-6.106;2023-09-19T11:03:16;99374.25;;;22.26;56.86
58686;BME280;44465;53.206;-6.106;2023-09-19T11:05:32;99371.69;;;22.25;56.72
58686;BME280;44465;53.206;-6.106;2023-09-19T11:07:59;99371.56;;;22.26;56.79
58686;BME280;44465;53.206;-6.106;2023-09-19T11:10:48;99373.28;;;22.27;56.99
58686;BME280;44465;53.206;-6.106;2023-09-19T11:13:23;99373.28;;;22.27;56.75
58686;BME280;44465;53.206;-6.106;2023-09-19T11:26:40;99384.72;;;22.29;56.81
58686;BME280;44465;53.206;-6.106;2023-09-19T11:29:24;99375.69;;;22.30;56.92
58686;BME280;44465;53.206;-6.106;2023-09-19T11:31:51;99377.41;;;22.31;56.80
58686;BME280;44465;53.206;-6.106;2023-09-19T11:37:01;99393.50;;;22.31;56.92
58686;BME280;44465;53.206;-6.106;2023-09-19T11:39:29;99393.50;;;22.31;56.81
58686;BME280;44465;53.206;-6.106;2023-09-19T11:41:54;99387.28;;;22.31;56.95
58686;BME280;44465;53.206;-6.106;2023-09-19T11:44:32;99374.88;;;22.30;57.15
58686;BME280;44465;53.206;-6.106;2023-09-19T11:46:59;99404.38;;;22.30;57.14
58686;BME280;44465;53.206;-6.106;2023-09-19T11:49:28;99381.91;;;22.31;57.07
58686;BME280;44465;53.206;-6.106;2023-09-19T11:51:55;99398.88;;;22.31;57.00
58686;BME280;44465;53.206;-6.106;2023-09-19T11:54:21;99393.50;;;22.31;56.91
58686;BME280;44465;53.206;-6.106;2023-09-19T11:56:53;99387.16;;;22.33;56.93
58686;BME280;44465;53.206;-6.106;2023-09-19T11:59:23;99400.56;;;22.33;56.98
58686;BME280;44465;53.206;-6.106;2023-09-19T12:01:52;99396.91;;;22.34;56.80
58686;BME280;44465;53.206;-6.106;2023-09-19T12:04:37;99394.22;;;22.34;56.64
58686;BME280;44465;53.206;-6.106;2023-09-19T12:07:07;99396.91;;;22.34;56.79
58686;BME280;44465;53.206;-6.106;2023-09-19T12:09:39;99390.69;;;22.33;56.93
58686;BME280;44465;53.206;-6.106;2023-09-19T12:12:05;99390.97;;;22.30;57.49
58686;BME280;44465;53.206;-6.106;2023-09-19T12:14:31;99384.47;;;22.33;57.22
58686;BME280;44465;53.206;-6.106;2023-09-19T12:16:56;99386.19;;;22.34;57.21
58686;BME280;44465;53.206;-6.106;2023-09-19T12:19:23;99361.91;;;22.35;57.05
58686;BME280;44465;53.206;-6.106;2023-09-19T12:21:54;99375.19;;;22.37;57.13
58686;BME280;44465;53.206;-6.106;2023-09-19T12:24:21;99365.31;;;22.37;57.25
58686;BME280;44465;53.206;-6.106;2023-09-19T12:26:47;99375.91;;;22.39;57.36
58686;BME280;44465;53.206;-6.106;2023-09-19T12:29:18;99387.41;;;22.41;57.43
58686;BME280;44465;53.206;-6.106;2023-09-19T12:31:47;99374.00;;;22.41;57.75
58686;BME280;44465;53.206;-6.106;2023-09-19T12:34:21;99378.97;;;22.45;57.67
58686;BME280;44465;53.206;-6.106;2023-09-19T12:36:48;99365.41;;;22.47;57.78
58686;BME280;44465;53.206;-6.106;2023-09-19T12:39:23;99367.00;;;22.50;57.86
58686;BME280;44465;53.206;-6.106;2023-09-19T12:41:50;99371.41;;;22.51;57.62
58686;BME280;44465;53.206;-6.106;2023-09-19T12:44:16;99356.00;;;22.53;57.88
58686;BME280;44465;53.206;-6.106;2023-09-19T12:46:43;99378.78;;;22.58;57.76
58686;BME280;44465;53.206;-6.106;2023-09-19T12:49:17;99379.66;;;22.59;57.56
58686;BME280;44465;53.206;-6.106;2023-09-19T12:51:42;99383.16;;;22.59;57.46
58686;BME280;44465;53.206;-6.106;2023-09-19T12:54:08;99379.38;;;22.62;57.65
58686;BME280;44465;53.206;-6.106;2023-09-19T12:56:42;99374.88;;;22.62;57.54
58686;BME280;44465;53.206;-6.106;2023-09-19T12:59:13;99376.56;;;22.64;57.49
58686;BME280;44465;53.206;-6.106;2023-09-19T13:01:39;99379.97;;;22.66;57.78
58686;BME280;44465;53.206;-6.106;2023-09-19T13:04:21;99373.75;;;22.65;57.77
58686;BME280;44465;53.206;-6.106;2023-09-19T13:06:54;99385.34;;;22.66;57.84
58686;BME280;44465;53.206;-6.106;2023-09-19T13:09:21;99402.16;;;22.68;57.63
58686;BME280;44465;53.206;-6.106;2023-09-19T13:11:47;99370.97;;;22.67;57.68
58686;BME280;44465;53.206;-6.106;2023-09-19T13:14:24;99378.00;;;22.68;57.62
58686;BME280;44465;53.206;-6.106;2023-09-19T13:16:56;99394.09;;;22.68;57.69
58686;BME280;44465;53.206;-6.106;2023-09-19T13:19:35;99382.53;;;22.67;57.70
58686;BME280;44465;53.206;-6.106;2023-09-19T13:22:00;99381.56;;;22.68;57.70
58686;BME280;44465;53.206;-6.106;2023-09-19T13:24:26;99398.63;;;22.67;57.55
58686;BME280;44465;53.206;-6.106;2023-09-19T13:26:53;99392.41;;;22.67;57.70
58686;BME280;44465;53.206;-6.106;2023-09-19T13:29:18;99396.78;;;22.68;57.43
58686;BME280;44465;53.206;-6.106;2023-09-19T13:31:47;99398.47;;;22.69;57.38
58686;BME280;44465;53.206;-6.106;2023-09-19T13:34:13;99385.06;;;22.69;57.58
58686;BME280;44465;53.206;-6.106;2023-09-19T13:36:40;99405.69;;;22.68;57.63